Time;durP1;ratioP1;P1;durP2;ratioP2;P2;SDS_P1;SDS_P2;PMS_P1;PMS_P2;Temp;Humidity;BMP_temperature;BMP_pressure;BME280_temperature;BME280_humidity;BME280_pressure;Samples;Min_cycle;Max_cycle;Signal;HPM_P1;HPM_P2
2022/01/26 00:00:07;;;;;;;;;;;;;;;26.64;25.16;98659.34;171751;28;1026;-58
2022/01/26 00:00:19;;;;;;;;;;;;;;;26.64;25.00;98664.63;171672;28;830;-57
2022/01/26 00:00:43;;;;;;;;;;;;;;;26.67;25.12;98659.13;171029;28;853;-58
2022/01/26 00:05:47;;;;;;;;;;;;;;;26.67;25.16;98667.06;172492;28;825;-58
2022/01/26 00:05:49;;;;;;;;;;;;;;;26.55;25.08;98660.78;173046;28;1407;-56
2022/01/26 00:06:01;;;;;;;;;;;;;;;26.57;25.35;98658.88;172884;28;4411;-58
2022/01/26 00:06:18;;;;;;;;;;;;;;;26.58;25.32;98665.03;173093;28;876;-57
2022/01/26 00:06:24;;;;;;;;;;;;;;;26.56;25.08;98664.28;173751;28;989;-57
2022/01/26 00:06:29;;;;;;;;;;;;;;;26.53;25.31;98651.22;173796;28;848;-57
2022/01/26 00:06:38;;;;;;;;;;;;;;;26.57;25.09;98658.88;173675;28;1176;-56
2022/01/26 00:06:44;;;;;;;;;;;;;;;26.59;25.18;98661.44;173802;28;805;-58
2022/01/26 00:06:49;;;;;;;;;;;;;;;26.53;25.10;98659.19;173806;28;1160;-58
2022/01/26 00:06:55;;;;;;;;;;;;;;;26.57;25.40;98658.88;173845;28;810;-57
2022/01/26 00:07:00;;;;;;;;;;;;;;;26.58;24.97;98659.72;173614;28;1246;-56
2022/01/26 00:07:06;;;;;;;;;;;;;;;26.61;25.02;98654.22;173748;28;821;-58
2022/01/26 00:07:11;;;;;;;;;;;;;;;26.63;25.21;98660.28;173673;28;1129;-57
2022/01/26 00:07:16;;;;;;;;;;;;;;;26.62;25.37;98658.56;173918;28;738;-56
2022/01/26 00:07:21;;;;;;;;;;;;;;;26.63;25.40;98661.13;173758;28;982;-57
2022/01/26 00:07:27;;;;;;;;;;;;;;;26.67;25.11;98664.41;173095;28;885;-58
2022/01/26 00:07:32;;;;;;;;;;;;;;;26.68;25.11;98664.31;173050;28;1046;-56
2022/01/26 00:07:37;;;;;;;;;;;;;;;26.61;25.25;98654.22;172830;28;751;-57
2022/01/26 00:07:42;;;;;;;;;;;;;;;26.61;25.00;98659.53;172563;28;866;-58
2022/01/26 00:07:47;;;;;;;;;;;;;;;26.57;25.19;98658.88;172474;28;1181;-57
2022/01/26 00:07:53;;;;;;;;;;;;;;;26.55;25.13;98659.94;172429;28;872;-58
2022/01/26 00:07:58;;;;;;;;;;;;;;;26.57;25.07;98658.88;172547;28;1164;-56
2022/01/26 00:08:04;;;;;;;;;;;;;;;26.64;25.34;98659.34;172311;28;1157;-57
2022/01/26 00:08:09;;;;;;;;;;;;;;;26.65;25.20;98656.59;172370;28;1026;-58
2022/01/26 00:08:15;;;;;;;;;;;;;;;26.63;24.96;98655.00;172682;28;798;-57
2022/01/26 00:08:24;;;;;;;;;;;;;;;26.55;25.21;98660.78;172385;28;978;-57
2022/01/26 00:08:29;;;;;;;;;;;;;;;26.62;25.17;98653.28;172512;28;853;-58
2022/01/26 00:08:35;;;;;;;;;;;;;;;26.62;25.05;98655.91;172315;28;1177;-57
2022/01/26 00:08:41;;;;;;;;;;;;;;;26.64;25.08;98656.69;172422;28;884;-57
2022/01/26 00:08:46;;;;;;;;;;;;;;;26.66;24.93;98658.28;172525;28;1185;-56
2022/01/26 00:08:51;;;;;;;;;;;;;;;26.69;24.98;98658.06;172493;28;794;-58
2022/01/26 00:08:56;;;;;;;;;;;;;;;26.71;24.76;98658.84;172429;28;987;-58
2022/01/26 00:09:02;;;;;;;;;;;;;;;26.73;25.16;98653.44;172399;28;1153;-57
2022/01/26 00:09:07;;;;;;;;;;;;;;;26.75;24.79;98650.69;172283;28;1152;-57
2022/01/26 00:09:12;;;;;;;;;;;;;;;26.73;24.90;98653.44;172539;28;837;-58
2022/01/26 00:09:18;;;;;;;;;;;;;;;26.75;24.88;98656.81;172557;28;1165;-57
2022/01/26 00:09:26;;;;;;;;;;;;;;;26.79;25.01;98654.84;172444;28;788;-58
2022/01/26 00:09:31;;;;;;;;;;;;;;;26.81;24.77;98655.56;172443;28;971;-58
2022/01/26 00:09:37;;;;;;;;;;;;;;;26.81;24.70;98658.22;172330;28;901;-57
2022/01/26 00:09:43;;;;;;;;;;;;;;;26.83;24.98;98657.16;172024;28;4367;-58
2022/01/26 00:09:48;;;;;;;;;;;;;;;26.83;24.96;98649.22;172520;28;821;-57
2022/01/26 00:09:53;;;;;;;;;;;;;;;26.81;24.71;98660.88;172389;28;1034;-58
2022/01/26 00:09:58;;;;;;;;;;;;;;;26.74;24.84;98651.63;172719;28;885;-58
2022/01/26 00:10:03;;;;;;;;;;;;;;;26.78;24.98;98658.41;171602;28;1157;-56
2022/01/26 00:10:09;;;;;;;;;;;;;;;26.79;24.82;98655.69;171340;28;1787;-56
2022/01/26 00:10:14;;;;;;;;;;;;;;;26.79;24.91;98658.31;172473;28;837;-57
2022/01/26 00:10:19;;;;;;;;;;;;;;;26.80;24.80;98648.59;172369;28;1051;-58
2022/01/26 00:10:24;;;;;;;;;;;;;;;26.78;25.04;98659.28;172412;28;885;-57
2022/01/26 00:10:30;;;;;;;;;;;;;;;26.79;24.94;98657.47;172477;28;1473;-57
2022/01/26 00:10:35;;;;;;;;;;;;;;;26.80;24.69;98653.88;172884;28;826;-57
2022/01/26 00:10:40;;;;;;;;;;;;;;;26.78;24.79;98658.41;172457;28;1035;-58
2022/01/26 00:10:46;;;;;;;;;;;;;;;26.81;25.09;98655.56;173210;28;703;-57
2022/01/26 00:10:51;;;;;;;;;;;;;;;26.83;24.79;98657.16;173120;28;892;-58
2022/01/26 00:10:56;;;;;;;;;;;;;;;26.82;24.75;98655.47;173112;28;1177;-57
2022/01/26 00:11:01;;;;;;;;;;;;;;;26.82;24.98;98654.63;173013;28;1093;-58
2022/01/26 00:11:07;;;;;;;;;;;;;;;26.84;24.95;98655.34;172915;28;1211;-58
2022/01/26 00:11:12;;;;;;;;;;;;;;;26.84;24.67;98655.34;173114;28;964;-57
2022/01/26 00:11:17;;;;;;;;;;;;;;;26.83;24.99;98657.16;173206;28;907;-57
2022/01/26 00:11:23;;;;;;;;;;;;;;;26.85;24.80;98657.91;172521;28;794;-57
2022/01/26 00:11:31;;;;;;;;;;;;;;;26.82;24.93;98657.25;172461;28;1259;-58
2022/01/26 00:11:36;;;;;;;;;;;;;;;26.80;24.86;98652.09;171704;28;1302;-57
2022/01/26 00:11:41;;;;;;;;;;;;;;;26.76;25.04;98652.38;171774;28;1173;-58
2022/01/26 00:11:46;;;;;;;;;;;;;;;26.75;24.91;98656.81;171913;28;880;-58
2022/01/26 00:11:52;;;;;;;;;;;;;;;26.78;24.82;98664.56;172475;28;1121;-57
2022/01/26 00:11:57;;;;;;;;;;;;;;;26.80;24.94;98657.38;171187;28;882;-57
2022/01/26 00:12:02;;;;;;;;;;;;;;;26.82;24.74;98659.91;170983;28;1221;-58
2022/01/26 00:12:09;;;;;;;;;;;;;;;26.76;24.76;98653.22;170976;28;1035;-56
2022/01/26 00:12:14;;;;;;;;;;;;;;;26.80;24.83;98653.88;170647;29;850;-56
2022/01/26 00:12:19;;;;;;;;;;;;;;;26.82;24.79;98654.63;171102;28;798;-57
2022/01/26 00:12:24;;;;;;;;;;;;;;;26.84;24.77;98660.66;171200;28;886;-57
2022/01/26 00:12:30;;;;;;;;;;;;;;;26.82;24.88;98657.25;171086;28;1162;-58
2022/01/26 00:12:35;;;;;;;;;;;;;;;26.82;25.02;98654.63;171049;28;985;-56
2022/01/26 00:12:40;;;;;;;;;;;;;;;26.79;24.71;98660.97;171072;28;957;-57
2022/01/26 00:12:45;;;;;;;;;;;;;;;26.81;24.69;98656.41;171301;28;719;-57
2022/01/26 00:12:50;;;;;;;;;;;;;;;26.78;25.17;98661.06;171757;28;1149;-56
2022/01/26 00:12:56;;;;;;;;;;;;;;;26.73;25.16;98650.78;171879;28;873;-58
2022/01/26 00:13:01;;;;;;;;;;;;;;;26.71;25.21;98656.19;172249;28;1113;-57
2022/01/26 00:13:06;;;;;;;;;;;;;;;26.77;25.10;98654.91;172212;28;1181;-58
2022/01/26 00:13:11;;;;;;;;;;;;;;;26.72;24.89;98651.75;172456;28;896;-58
2022/01/26 00:13:16;;;;;;;;;;;;;;;26.73;24.84;98653.44;172584;28;1182;-57
2022/01/26 00:13:21;;;;;;;;;;;;;;;26.72;25.03;98651.75;172539;28;821;-58
2022/01/26 00:13:27;;;;;;;;;;;;;;;26.79;25.13;98660.97;172469;28;1129;-58
2022/01/26 00:13:32;;;;;;;;;;;;;;;26.81;25.08;98656.41;172362;28;861;-57
2022/01/26 00:13:37;;;;;;;;;;;;;;;26.77;24.91;98657.56;172933;28;1137;-58
2022/01/26 00:13:42;;;;;;;;;;;;;;;26.78;25.06;98656.63;172669;28;4507;-57
2022/01/26 00:13:48;;;;;;;;;;;;;;;26.81;25.07;98655.56;173316;28;750;-58
2022/01/26 00:13:53;;;;;;;;;;;;;;;26.75;25.07;98656.81;173097;28;1166;-57
2022/01/26 00:14:00;;;;;;;;;;;;;;;26.74;24.69;98655.13;173180;28;876;-58
2022/01/26 00:14:09;;;;;;;;;;;;;;;26.82;25.03;98655.47;172263;28;1219;-57
2022/01/26 00:14:15;;;;;;;;;;;;;;;26.81;24.75;98653.78;172551;28;1133;-58
2022/01/26 00:14:20;;;;;;;;;;;;;;;26.84;24.96;98656.19;171875;28;1612;-58
2022/01/26 00:14:25;;;;;;;;;;;;;;;26.85;24.93;98657.06;171659;28;999;-56
2022/01/26 00:14:30;;;;;;;;;;;;;;;26.83;24.94;98661.59;171560;28;754;-56
2022/01/26 00:14:39;;;;;;;;;;;;;;;26.79;25.00;98652.19;171681;28;1193;-58
2022/01/26 00:14:44;;;;;;;;;;;;;;;26.83;24.96;98654.50;171812;28;846;-56
2022/01/26 00:14:49;;;;;;;;;;;;;;;26.84;24.91;98658.84;171699;28;1142;-57
2022/01/26 00:14:54;;;;;;;;;;;;;;;26.83;24.69;98658.97;171814;28;878;-57
2022/01/26 00:14:59;;;;;;;;;;;;;;;26.84;24.93;98658.00;171601;28;984;-57
2022/01/26 00:15:05;;;;;;;;;;;;;;;26.85;24.89;98657.06;171716;28;1291;-58
2022/01/26 00:15:11;;;;;;;;;;;;;;;26.85;24.74;98657.91;173142;28;849;-57
2022/01/26 00:15:16;;;;;;;;;;;;;;;26.82;24.92;98658.13;173264;28;826;-57
2022/01/26 00:15:21;;;;;;;;;;;;;;;26.86;24.93;98656.09;173007;28;1023;-56
2022/01/26 00:15:29;;;;;;;;;;;;;;;26.86;24.72;98654.31;172963;28;1152;-57
2022/01/26 00:15:34;;;;;;;;;;;;;;;26.85;24.70;98657.06;172249;28;1253;-58
2022/01/26 00:15:39;;;;;;;;;;;;;;;26.87;24.94;98660.47;173064;28;1252;-57
2022/01/26 00:15:45;;;;;;;;;;;;;;;26.87;24.93;98655.19;173187;28;896;-57
2022/01/26 00:15:50;;;;;;;;;;;;;;;26.90;24.62;98660.25;173039;28;1133;-58
2022/01/26 00:15:57;;;;;;;;;;;;;;;26.90;24.93;98655.81;173294;28;804;-58
2022/01/26 00:16:06;;;;;;;;;;;;;;;26.90;24.84;98657.59;171689;28;1202;-58
2022/01/26 00:16:23;;;;;;;;;;;;;;;26.84;24.98;98664.16;171810;28;1047;-57
2022/01/26 00:16:37;;;;;;;;;;;;;;;26.82;24.70;98655.47;172498;28;912;-56
2022/01/26 00:16:44;;;;;;;;;;;;;;;26.84;24.63;98655.34;171826;28;874;-58
2022/01/26 00:16:49;;;;;;;;;;;;;;;26.78;24.72;98656.63;171246;28;1241;-58
2022/01/26 00:16:54;;;;;;;;;;;;;;;26.84;24.83;98656.19;171235;28;904;-56
2022/01/26 00:17:01;;;;;;;;;;;;;;;26.85;25.00;98655.25;170533;28;1198;-57
2022/01/26 00:17:06;;;;;;;;;;;;;;;26.89;24.73;98655.91;169799;29;909;-57
2022/01/26 00:17:12;;;;;;;;;;;;;;;26.88;24.78;98663.00;170774;28;1195;-57
2022/01/26 00:17:17;;;;;;;;;;;;;;;26.84;24.73;98653.56;171215;28;695;-57
2022/01/26 00:17:22;;;;;;;;;;;;;;;26.78;24.78;98656.63;171138;28;999;-57
2022/01/26 00:17:27;;;;;;;;;;;;;;;26.81;24.75;98660.88;171190;28;869;-58
2022/01/26 00:17:33;;;;;;;;;;;;;;;26.78;25.00;98654.00;171496;28;967;-57
2022/01/26 00:17:38;;;;;;;;;;;;;;;26.78;25.04;98650.47;170673;28;1244;-57
2022/01/26 00:17:43;;;;;;;;;;;;;;;26.79;24.95;98652.19;171791;28;938;-57
2022/01/26 00:17:50;;;;;;;;;;;;;;;26.81;24.92;98656.41;171294;28;4616;-58
2022/01/26 00:17:56;;;;;;;;;;;;;;;26.79;24.89;98655.69;171935;28;782;-58
2022/01/26 00:18:01;;;;;;;;;;;;;;;26.80;24.96;98654.72;171082;28;1114;-58
2022/01/26 00:18:07;;;;;;;;;;;;;;;26.79;24.78;98660.13;171152;28;779;-57
2022/01/26 00:18:14;;;;;;;;;;;;;;;26.81;24.71;98661.72;171780;28;1114;-58
2022/01/26 00:18:21;;;;;;;;;;;;;;;26.80;25.03;98660.03;171842;28;689;-57
2022/01/26 00:18:30;;;;;;;;;;;;;;;26.85;24.73;98660.53;171781;28;829;-58
2022/01/26 00:18:37;;;;;;;;;;;;;;;26.83;25.01;98662.44;171588;28;1126;-57
2022/01/26 00:18:43;;;;;;;;;;;;;;;26.78;24.81;98664.56;171724;28;976;-57
2022/01/26 00:18:48;;;;;;;;;;;;;;;26.74;25.03;98659.56;171501;28;1503;-57
2022/01/26 00:18:57;;;;;;;;;;;;;;;26.74;25.13;98655.13;171060;28;830;-56
2022/01/26 00:19:04;;;;;;;;;;;;;;;26.83;24.79;98654.50;170956;28;1002;-57
2022/01/26 00:19:11;;;;;;;;;;;;;;;26.85;24.75;98662.34;171146;28;1090;-56
2022/01/26 00:19:21;;;;;;;;;;;;;;;26.85;25.04;98655.25;171239;28;822;-58
2022/01/26 00:19:42;;;;;;;;;;;;;;;26.83;25.04;98651.88;171170;28;538;-57
2022/01/26 00:20:02;;;;;;;;;;;;;;;26.78;24.85;98656.63;171785;28;909;-56
2022/01/26 00:20:21;;;;;;;;;;;;;;;26.71;24.85;98653.53;171685;28;956;-57
2022/01/26 00:20:34;;;;;;;;;;;;;;;26.79;24.84;98646.91;171770;28;774;-56
2022/01/26 00:20:51;;;;;;;;;;;;;;;26.81;24.87;98648.47;171793;28;884;-57
2022/01/26 00:21:05;;;;;;;;;;;;;;;26.83;24.68;98653.66;172400;28;1066;-56
2022/01/26 00:21:23;;;;;;;;;;;;;;;26.71;24.87;98653.53;171753;28;1208;-58
2022/01/26 00:21:48;;;;;;;;;;;;;;;26.77;25.09;98649.63;172031;28;892;-58
2022/01/26 00:21:56;;;;;;;;;;;;;;;26.67;24.90;98645.91;172158;28;4419;-58
2022/01/26 00:22:01;;;;;;;;;;;;;;;26.63;25.31;98653.19;172559;28;1148;-57
2022/01/26 00:22:06;;;;;;;;;;;;;;;26.67;24.86;98653.84;172436;28;1117;-57
2022/01/26 00:22:22;;;;;;;;;;;;;;;26.67;25.07;98652.03;172555;28;908;-57
2022/01/26 00:23:07;;;;;;;;;;;;;;;26.69;24.98;98649.28;172505;28;1189;-57
2022/01/26 00:25:05;;;;;;;;;;;;;;;26.54;25.16;98650.28;170816;28;957;-57
2022/01/26 00:25:42;;;;;;;;;;;;;;;26.59;25.18;98656.13;170959;28;1325;-56
2022/01/26 00:26:12;;;;;;;;;;;;;;;26.60;24.96;98652.53;170977;28;1578;-56
2022/01/26 00:26:28;;;;;;;;;;;;;;;26.57;25.10;98655.41;171245;28;949;-56
2022/01/26 00:27:07;;;;;;;;;;;;;;;26.64;25.24;98654.91;171236;28;998;-56
2022/01/26 00:27:51;;;;;;;;;;;;;;;26.60;25.05;98660.47;172342;28;973;-58
2022/01/26 00:28:30;;;;;;;;;;;;;;;26.50;25.47;98664.69;171726;28;939;-57
2022/01/26 00:29:16;;;;;;;;;;;;;;;26.53;25.08;98659.19;172677;28;616;-56
2022/01/26 00:29:22;;;;;;;;;;;;;;;26.50;25.44;98662.03;172552;28;1187;-57
2022/01/26 00:29:35;;;;;;;;;;;;;;;26.54;25.08;98663.50;172647;28;814;-57
2022/01/26 00:29:47;;;;;;;;;;;;;;;26.54;25.09;98668.81;172502;28;798;-56
2022/01/26 00:31:24;;;;;;;;;;;;;;;26.56;25.33;98662.47;172158;28;4272;-57
2022/01/26 00:38:32;;;;;;;;;;;;;;;26.43;25.26;98658.94;173668;28;1065;-55
2022/01/26 00:38:33;;;;;;;;;;;;;;;26.45;25.04;98646.44;172471;28;604;-57
2022/01/26 00:38:47;;;;;;;;;;;;;;;26.36;25.65;98652.31;172747;28;608;-57
2022/01/26 00:38:52;;;;;;;;;;;;;;;26.35;25.34;98655.91;172645;28;830;-57
2022/01/26 00:38:59;;;;;;;;;;;;;;;26.34;25.38;98649.75;171829;28;1090;-58
2022/01/26 00:39:04;;;;;;;;;;;;;;;26.32;25.63;98653.47;171504;28;1039;-57
2022/01/26 00:39:10;;;;;;;;;;;;;;;26.33;25.23;98653.34;171676;28;1031;-57
2022/01/26 00:39:16;;;;;;;;;;;;;;;26.35;25.54;98647.97;171828;28;726;-56
2022/01/26 00:39:21;;;;;;;;;;;;;;;26.31;25.53;98643.84;171813;28;943;-58
2022/01/26 00:39:26;;;;;;;;;;;;;;;26.29;25.37;98648.34;171853;28;906;-56
2022/01/26 00:39:31;;;;;;;;;;;;;;;26.30;25.43;98650.03;171627;28;1030;-57
2022/01/26 00:39:37;;;;;;;;;;;;;;;26.32;25.48;98654.31;171693;28;875;-57
2022/01/26 00:39:42;;;;;;;;;;;;;;;26.36;25.59;98653.16;171780;28;850;-57
2022/01/26 00:39:47;;;;;;;;;;;;;;;26.37;25.38;98657.50;171781;28;885;-58
2022/01/26 00:39:56;;;;;;;;;;;;;;;26.41;25.27;98650.25;171858;28;806;-58
2022/01/26 00:40:07;;;;;;;;;;;;;;;26.47;25.49;98660.44;171761;28;1065;-57
2022/01/26 00:40:21;;;;;;;;;;;;;;;26.51;25.15;98654.00;171036;28;948;-58
2022/01/26 00:40:35;;;;;;;;;;;;;;;26.52;25.22;98654.84;171204;28;905;-57
2022/01/26 00:40:43;;;;;;;;;;;;;;;26.44;25.46;98650.88;171156;28;846;-57
2022/01/26 00:41:02;;;;;;;;;;;;;;;26.53;25.27;98653.88;170493;29;807;-57
2022/01/26 00:41:10;;;;;;;;;;;;;;;26.48;25.25;98648.91;170647;28;1035;-57
2022/01/26 00:41:19;;;;;;;;;;;;;;;26.54;25.40;98652.94;171180;28;862;-58
2022/01/26 00:41:34;;;;;;;;;;;;;;;26.48;25.41;98650.72;171430;28;936;-58
2022/01/26 00:41:40;;;;;;;;;;;;;;;26.53;25.09;98649.44;171056;28;1480;-57
2022/01/26 00:41:46;;;;;;;;;;;;;;;26.47;25.23;98651.66;171639;28;830;-57
2022/01/26 00:41:55;;;;;;;;;;;;;;;26.49;25.11;98649.75;171589;28;4402;-58
2022/01/26 00:42:00;;;;;;;;;;;;;;;26.50;25.17;98652.28;172372;28;963;-58
2022/01/26 00:42:06;;;;;;;;;;;;;;;26.54;25.37;98652.94;172832;28;1137;-57
2022/01/26 00:42:11;;;;;;;;;;;;;;;26.55;25.14;98652.84;173113;28;774;-57
2022/01/26 00:42:16;;;;;;;;;;;;;;;26.54;25.04;98647.63;173693;28;1226;-57
2022/01/26 00:42:22;;;;;;;;;;;;;;;26.57;25.04;98655.41;173858;28;769;-57
2022/01/26 00:42:36;;;;;;;;;;;;;;;26.54;25.11;98643.19;173840;28;1200;-56
2022/01/26 00:42:43;;;;;;;;;;;;;;;26.56;25.03;98654.56;173408;28;1002;-57
2022/01/26 00:42:52;;;;;;;;;;;;;;;26.51;25.06;98650.50;172905;28;1965;-57
2022/01/26 00:43:01;;;;;;;;;;;;;;;26.52;25.48;98653.03;172602;28;889;-57
2022/01/26 00:43:15;;;;;;;;;;;;;;;26.53;25.48;98648.59;173050;28;1085;-58
2022/01/26 00:43:24;;;;;;;;;;;;;;;26.52;25.31;98645.09;172430;28;872;-57
2022/01/26 00:43:30;;;;;;;;;;;;;;;26.58;25.34;98651.78;172310;28;1104;-57
2022/01/26 00:43:36;;;;;;;;;;;;;;;26.56;25.15;98648.41;172380;28;798;-56
2022/01/26 00:43:44;;;;;;;;;;;;;;;26.54;25.37;98642.34;172458;28;1221;-57
2022/01/26 00:43:56;;;;;;;;;;;;;;;26.55;25.09;98650.22;172385;28;1051;-57
2022/01/26 00:44:01;;;;;;;;;;;;;;;26.61;25.06;98647.13;172412;28;1152;-56
2022/01/26 00:44:07;;;;;;;;;;;;;;;26.61;24.86;98644.50;171772;28;782;-57
2022/01/26 00:44:14;;;;;;;;;;;;;;;26.61;24.95;98646.28;171775;28;802;-56
2022/01/26 00:44:19;;;;;;;;;;;;;;;26.65;24.99;98647.81;171103;28;866;-58
2022/01/26 00:44:36;;;;;;;;;;;;;;;26.67;24.97;98644.09;171957;28;843;-58
2022/01/26 00:44:45;;;;;;;;;;;;;;;26.62;24.92;98648.88;171771;28;1165;-57
2022/01/26 00:44:51;;;;;;;;;;;;;;;26.61;25.31;98644.50;172402;28;947;-58
2022/01/26 00:44:56;;;;;;;;;;;;;;;26.64;25.23;98652.25;172513;28;817;-57
2022/01/26 00:45:01;;;;;;;;;;;;;;;26.66;25.03;98646.84;171580;28;1161;-58
2022/01/26 00:45:07;;;;;;;;;;;;;;;26.58;25.08;98647.34;171742;28;906;-58
2022/01/26 00:45:12;;;;;;;;;;;;;;;26.58;25.14;98649.16;171631;28;1000;-56
2022/01/26 00:45:21;;;;;;;;;;;;;;;26.59;25.26;98645.56;171821;28;874;-57
2022/01/26 00:45:33;;;;;;;;;;;;;;;26.55;25.17;98644.91;171728;28;1090;-58
2022/01/26 00:45:39;;;;;;;;;;;;;;;26.56;25.36;98648.41;170999;28;1237;-58
2022/01/26 00:45:44;;;;;;;;;;;;;;;26.58;25.00;98642.06;170607;28;4221;-57
2022/01/26 00:45:55;;;;;;;;;;;;;;;26.59;25.02;98640.25;171138;28;1054;-57
2022/01/26 00:46:01;;;;;;;;;;;;;;;26.57;25.04;98647.47;171418;28;1091;-56
2022/01/26 00:46:08;;;;;;;;;;;;;;;26.59;25.28;98643.75;172296;28;755;-58
2022/01/26 00:46:13;;;;;;;;;;;;;;;26.58;25.29;98649.16;172319;28;1208;-57
2022/01/26 00:46:18;;;;;;;;;;;;;;;26.57;25.06;98644.81;172489;28;822;-57
2022/01/26 00:46:24;;;;;;;;;;;;;;;26.59;25.26;98646.41;171402;28;1067;-56
2022/01/26 00:46:29;;;;;;;;;;;;;;;26.63;24.98;98637.31;171760;28;861;-57
2022/01/26 00:46:36;;;;;;;;;;;;;;;26.60;25.21;98647.25;171004;28;949;-55
2022/01/26 00:46:48;;;;;;;;;;;;;;;26.58;25.34;98649.16;171134;28;747;-57
2022/01/26 00:46:53;;;;;;;;;;;;;;;26.56;25.00;98638.69;170540;29;854;-57
2022/01/26 00:46:59;;;;;;;;;;;;;;;26.62;25.08;98642.69;170571;28;1166;-57
2022/01/26 00:47:05;;;;;;;;;;;;;;;26.63;25.23;98645.25;171009;28;885;-57
2022/01/26 00:47:10;;;;;;;;;;;;;;;26.61;24.95;98644.50;170930;28;1252;-57
2022/01/26 00:47:15;;;;;;;;;;;;;;;26.62;25.27;98643.56;171089;28;727;-57
2022/01/26 00:47:21;;;;;;;;;;;;;;;26.65;25.01;98642.50;170521;29;750;-57
2022/01/26 00:47:26;;;;;;;;;;;;;;;26.64;24.94;98641.66;170531;29;1257;-57
2022/01/26 00:47:31;;;;;;;;;;;;;;;26.61;25.09;98641.84;170283;29;913;-57
2022/01/26 00:47:37;;;;;;;;;;;;;;;26.64;25.11;98646.09;170352;29;1099;-56
2022/01/26 00:47:42;;;;;;;;;;;;;;;26.59;25.26;98643.75;170506;29;778;-57
2022/01/26 00:47:47;;;;;;;;;;;;;;;26.58;25.23;98638.56;171069;28;1024;-57
2022/01/26 00:47:52;;;;;;;;;;;;;;;26.62;25.20;98645.34;171271;28;806;-58
2022/01/26 00:48:00;;;;;;;;;;;;;;;26.55;25.29;98644.91;169774;29;1005;-57
2022/01/26 00:48:08;;;;;;;;;;;;;;;26.60;24.87;98641.94;170368;29;1005;-56
2022/01/26 00:48:19;;;;;;;;;;;;;;;26.63;25.24;98641.78;171800;28;1130;-57
2022/01/26 00:48:25;;;;;;;;;;;;;;;26.63;25.02;98639.13;171674;28;1019;-58
2022/01/26 00:48:36;;;;;;;;;;;;;;;26.60;24.98;98637.50;171511;28;877;-56
2022/01/26 00:48:42;;;;;;;;;;;;;;;26.57;24.91;98644.81;171842;28;834;-57
2022/01/26 00:48:49;;;;;;;;;;;;;;;26.63;24.98;98641.78;171558;28;1471;-57
2022/01/26 00:48:54;;;;;;;;;;;;;;;26.60;25.22;98640.16;172291;28;991;-57
2022/01/26 00:48:59;;;;;;;;;;;;;;;26.55;25.33;98639.63;171669;28;1074;-57
2022/01/26 00:49:04;;;;;;;;;;;;;;;26.57;25.33;98639.53;171533;28;1093;-57
2022/01/26 00:49:10;;;;;;;;;;;;;;;26.54;25.27;98643.19;171807;28;1248;-57
2022/01/26 00:49:17;;;;;;;;;;;;;;;26.61;25.22;98644.50;171798;28;803;-57
2022/01/26 00:49:23;;;;;;;;;;;;;;;26.60;25.12;98639.31;171768;28;1035;-58
2022/01/26 00:49:28;;;;;;;;;;;;;;;26.64;25.07;98640.81;171802;28;870;-56
2022/01/26 00:49:33;;;;;;;;;;;;;;;26.64;24.92;98633.72;171636;28;1085;-57
2022/01/26 00:49:38;;;;;;;;;;;;;;;26.65;25.12;98639.88;171818;28;750;-57
2022/01/26 00:49:44;;;;;;;;;;;;;;;26.60;24.98;98642.78;171841;28;1170;-56
2022/01/26 00:49:50;;;;;;;;;;;;;;;26.63;25.11;98641.78;171945;28;5148;-56
2022/01/26 00:50:06;;;;;;;;;;;;;;;26.64;24.92;98640.81;172811;28;1180;-58
2022/01/26 00:50:12;;;;;;;;;;;;;;;26.65;25.17;98639.88;172399;28;1186;-57
2022/01/26 00:50:17;;;;;;;;;;;;;;;26.62;25.08;98637.41;172468;28;829;-57
2022/01/26 00:50:22;;;;;;;;;;;;;;;26.62;25.24;98645.34;172523;28;1110;-58
2022/01/26 00:50:27;;;;;;;;;;;;;;;26.63;24.87;98636.47;172218;28;1597;-58
2022/01/26 00:50:33;;;;;;;;;;;;;;;26.65;24.79;98645.16;171424;28;1570;-56
2022/01/26 00:50:38;;;;;;;;;;;;;;;26.64;25.13;98635.53;171943;28;798;-58
2022/01/26 00:50:49;;;;;;;;;;;;;;;26.65;25.13;98634.56;172374;28;1216;-56
2022/01/26 00:50:55;;;;;;;;;;;;;;;26.68;24.90;98639.66;172127;28;1022;-56
2022/01/26 00:51:03;;;;;;;;;;;;;;;26.67;25.11;98637.97;172827;28;1093;-57
2022/01/26 00:51:09;;;;;;;;;;;;;;;26.55;25.01;98641.44;172500;28;1557;-56
2022/01/26 00:51:19;;;;;;;;;;;;;;;26.64;24.95;98643.47;172324;28;1301;-56
2022/01/26 00:51:24;;;;;;;;;;;;;;;26.68;24.96;98642.28;172528;28;897;-56
2022/01/26 00:51:29;;;;;;;;;;;;;;;26.67;25.10;98641.44;172095;28;1259;-55
2022/01/26 00:51:34;;;;;;;;;;;;;;;26.63;24.86;98645.25;172452;28;813;-57
2022/01/26 00:51:40;;;;;;;;;;;;;;;26.64;25.06;98644.31;172383;28;1042;-56
2022/01/26 00:51:45;;;;;;;;;;;;;;;26.65;25.11;98637.22;172342;28;1142;-54
2022/01/26 00:51:51;;;;;;;;;;;;;;;26.63;25.23;98644.41;172503;28;814;-57
2022/01/26 00:51:57;;;;;;;;;;;;;;;26.61;25.22;98639.19;172534;28;1173;-57
2022/01/26 00:52:05;;;;;;;;;;;;;;;26.63;24.83;98636.47;172337;28;1137;-57
2022/01/26 00:52:14;;;;;;;;;;;;;;;26.65;24.97;98634.56;172496;28;868;-55
2022/01/26 00:52:27;;;;;;;;;;;;;;;26.66;25.01;98644.19;173126;28;1188;-56
2022/01/26 00:52:44;;;;;;;;;;;;;;;26.70;24.99;98643.03;173060;28;964;-58
2022/01/26 00:52:53;;;;;;;;;;;;;;;26.57;24.99;98636.88;173128;28;802;-56
2022/01/26 00:52:59;;;;;;;;;;;;;;;26.56;25.35;98637.81;173287;28;953;-58
2022/01/26 00:53:04;;;;;;;;;;;;;;;26.61;24.95;98638.34;172853;28;1000;-56
2022/01/26 00:53:10;;;;;;;;;;;;;;;26.61;25.26;98641.00;173076;28;802;-57
2022/01/26 00:53:15;;;;;;;;;;;;;;;26.65;25.13;98639.88;173072;28;1188;-56
2022/01/26 00:53:23;;;;;;;;;;;;;;;26.63;25.04;98639.13;173214;28;865;-58
2022/01/26 00:53:34;;;;;;;;;;;;;;;26.59;24.89;98634.97;173092;28;1211;-57
2022/01/26 00:53:45;;;;;;;;;;;;;;;26.59;25.13;98635.81;172647;28;960;-58
2022/01/26 00:53:58;;;;;;;;;;;;;;;26.55;25.33;98647.56;172872;28;4452;-57
2022/01/26 00:54:06;;;;;;;;;;;;;;;26.61;24.99;98636.56;172928;28;1089;-57
2022/01/26 00:54:11;;;;;;;;;;;;;;;26.61;24.86;98638.34;173047;28;845;-57
2022/01/26 00:54:17;;;;;;;;;;;;;;;26.60;25.22;98636.66;172546;28;1181;-57
2022/01/26 00:54:22;;;;;;;;;;;;;;;26.63;25.07;98637.31;172537;28;893;-56
2022/01/26 00:54:27;;;;;;;;;;;;;;;26.62;25.12;98640.03;173147;28;1037;-56
2022/01/26 00:54:35;;;;;;;;;;;;;;;26.60;25.28;98636.66;173007;28;943;-58
2022/01/26 00:54:40;;;;;;;;;;;;;;;26.65;24.99;98638.06;172429;28;1142;-54
2022/01/26 00:54:45;;;;;;;;;;;;;;;26.66;25.03;98636.25;172396;28;893;-57
2022/01/26 00:54:50;;;;;;;;;;;;;;;26.68;25.17;98637.00;172455;28;1149;-57
2022/01/26 00:54:56;;;;;;;;;;;;;;;26.63;24.95;98636.47;172624;28;710;-57
2022/01/26 00:55:01;;;;;;;;;;;;;;;26.65;25.10;98635.41;172167;28;1073;-57
2022/01/26 00:55:07;;;;;;;;;;;;;;;26.66;25.10;98634.47;171749;28;859;-57
2022/01/26 00:55:13;;;;;;;;;;;;;;;26.68;25.09;98639.66;171823;28;807;-55
2022/01/26 00:55:18;;;;;;;;;;;;;;;26.68;25.17;98637.84;172481;28;841;-58
2022/01/26 00:55:23;;;;;;;;;;;;;;;26.59;24.97;98641.09;172506;28;1007;-57
2022/01/26 00:55:28;;;;;;;;;;;;;;;26.59;24.93;98640.25;172353;28;1233;-57
2022/01/26 00:55:36;;;;;;;;;;;;;;;26.55;25.00;98634.34;172454;28;794;-58
2022/01/26 00:55:42;;;;;;;;;;;;;;;26.63;24.87;98639.13;171578;28;1466;-57
2022/01/26 00:55:47;;;;;;;;;;;;;;;26.59;25.29;98640.25;171271;28;1531;-55
2022/01/26 00:55:52;;;;;;;;;;;;;;;26.57;25.02;98636.88;171780;28;1312;-58
2022/01/26 00:55:58;;;;;;;;;;;;;;;26.59;25.26;98641.09;172691;28;747;-57
2022/01/26 00:56:03;;;;;;;;;;;;;;;26.62;25.22;98637.41;172189;28;1022;-56
2022/01/26 00:56:09;;;;;;;;;;;;;;;26.60;25.19;98647.25;172381;28;925;-57
2022/01/26 00:56:14;;;;;;;;;;;;;;;26.62;25.17;98640.91;172305;28;1799;-57
2022/01/26 00:56:19;;;;;;;;;;;;;;;26.62;24.92;98640.91;172374;28;806;-57
2022/01/26 00:56:24;;;;;;;;;;;;;;;26.62;24.87;98637.41;172593;28;1130;-58
2022/01/26 00:56:30;;;;;;;;;;;;;;;26.62;24.89;98640.91;172925;28;1392;-57
2022/01/26 00:56:35;;;;;;;;;;;;;;;26.63;25.17;98639.13;173054;28;1172;-55
2022/01/26 00:56:40;;;;;;;;;;;;;;;26.59;25.18;98637.63;173199;28;920;-58
2022/01/26 00:56:45;;;;;;;;;;;;;;;26.63;25.01;98647.91;171731;28;893;-58
2022/01/26 00:56:51;;;;;;;;;;;;;;;26.60;25.22;98642.78;171258;28;1134;-58